Terminal Aerodrome Forecast
Issued by NWS

Home | Current Version | Previous Version | Text Only | Print | Product List | Glossary On
Versions: 1 2 3 4 5 6 7 8 9 10 11 12 13 14 15 16
000
FTUS43 KMQT 280500
TAFSAW
TAF
KSAW 280528Z 2806/2906 VRB03KT P6SM SKC
      TEMPO 2808/2812 5SM BR
     FM281200 15005KT P6SM SCT200
      AMD LTD TO CLD VIS AND WIND TIL 281000=

USA.gov is the U.S. government's official web portal to all federal, state and local government web resources and services.